Terminal Aerodrome Forecast
Issued by NWS Flagstaff, AZ

Home | Current Version | Previous Version | Text Only | Print | Product List | Glossary On
Versions: 1 2 3 4 5 6 7 8 9 10 11 12 13 14 15 16 17 18 19 20 21 22 23 24 25
000
FTUS45 KFGZ 192000 AAD
TAFINW
TAF AMD
KINW 192059Z 1921/2018 09006KT P6SM FEW010
     FM200200 VRB03KT 6SM BR SCT002 BKN012
     FM200400 VRB02KT 3/4SM BR OVC002=

USA.gov is the U.S. government's official web portal to all federal, state and local government web resources and services.